sensor_id;sensor_type;location;lat;lon;timestamp;pressure;altitude;pressure_sealevel;temperature;humidity
34925;BME280;21130;51.728;8.748;2023-04-29T00:00:29;99918.94;;;11.58;100.00
34925;BME280;21130;51.728;8.748;2023-04-29T00:02:56;99923.06;;;11.50;100.00
34925;BME280;21130;51.728;8.748;2023-04-29T00:05:23;99920.59;;;11.54;100.00
34925;BME280;21130;51.728;8.748;2023-04-29T00:07:50;99916.09;;;11.48;100.00
34925;BME280;21130;51.728;8.748;2023-04-29T00:10:17;99923.84;;;11.45;100.00
34925;BME280;21130;51.728;8.748;2023-04-29T00:12:43;99921.06;;;11.45;100.00
34925;BME280;21130;51.728;8.748;2023-04-29T00:15:10;99921.06;;;11.45;100.00
34925;BME280;21130;51.728;8.748;2023-04-29T00:17:37;99929.41;;;11.45;100.00
34925;BME280;21130;51.728;8.748;2023-04-29T00:20:04;99922.44;;;11.43;100.00
34925;BME280;21130;51.728;8.748;2023-04-29T00:22:33;99925.78;;;11.45;100.00
34925;BME280;21130;51.728;8.748;2023-04-29T00:24:59;99936.06;;;11.44;100.00
34925;BME280;21130;51.728;8.748;2023-04-29T00:27:26;99935.97;;;11.34;100.00
34925;BME280;21130;51.728;8.748;2023-04-29T00:29:52;99937.59;;;11.30;100.00
34925;BME280;21130;51.728;8.748;2023-04-29T00:32:18;99945.09;;;11.30;100.00
34925;BME280;21130;51.728;8.748;2023-04-29T00:34:45;99942.56;;;11.28;100.00
34925;BME280;21130;51.728;8.748;2023-04-29T00:37:12;99948.09;;;11.23;100.00
34925;BME280;21130;51.728;8.748;2023-04-29T00:39:40;99948.63;;;11.20;100.00
34925;BME280;21130;51.728;8.748;2023-04-29T00:42:07;99947.19;;;11.17;100.00
34925;BME280;21130;51.728;8.748;2023-04-29T00:44:34;99956.66;;;11.16;100.00
34925;BME280;21130;51.728;8.748;2023-04-29T00:47:01;99956.91;;;11.15;100.00
34925;BME280;21130;51.728;8.748;2023-04-29T00:49:28;99958.50;;;11.11;100.00
34925;BME280;21130;51.728;8.748;2023-04-29T00:51:56;99961.88;;;11.13;100.00
34925;BME280;21130;51.728;8.748;2023-04-29T00:54:23;99962.41;;;11.10;100.00
34925;BME280;21130;51.728;8.748;2023-04-29T00:56:51;99967.13;;;11.09;100.00
34925;BME280;21130;51.728;8.748;2023-04-29T00:59:18;99964.59;;;11.08;100.00
34925;BME280;21130;51.728;8.748;2023-04-29T01:01:44;99969.56;;;11.06;100.00
34925;BME280;21130;51.728;8.748;2023-04-29T01:04:11;99978.75;;;11.06;100.00
34925;BME280;21130;51.728;8.748;2023-04-29T01:06:48;99978.19;;;11.04;100.00
34925;BME280;21130;51.728;8.748;2023-04-29T01:09:25;99976.81;;;11.07;100.00
34925;BME280;21130;51.728;8.748;2023-04-29T01:12:05;99984.31;;;11.06;100.00
34925;BME280;21130;51.728;8.748;2023-04-29T01:14:34;99981.78;;;11.05;100.00
34925;BME280;21130;51.728;8.748;2023-04-29T01:17:05;99988.69;;;11.02;100.00
34925;BME280;21130;51.728;8.748;2023-04-29T01:19:38;99993.94;;;10.98;100.00
34925;BME280;21130;51.728;8.748;2023-04-29T01:22:09;99996.38;;;10.95;100.00
34925;BME280;21130;51.728;8.748;2023-04-29T01:24:38;99999.41;;;10.93;100.00
34925;BME280;21130;51.728;8.748;2023-04-29T01:27:11;100003.56;;;10.91;100.00
34925;BME280;21130;51.728;8.748;2023-04-29T01:29:43;100005.44;;;10.85;100.00
34925;BME280;21130;51.728;8.748;2023-04-29T01:32:17;100007.63;;;10.83;100.00
34925;BME280;21130;51.728;8.748;2023-04-29T01:34:49;100006.47;;;10.79;100.00
34925;BME280;21130;51.728;8.748;2023-04-29T01:37:20;100007.50;;;10.73;100.00
34925;BME280;21130;51.728;8.748;2023-04-29T01:39:56;100017.41;;;10.64;100.00
34925;BME280;21130;51.728;8.748;2023-04-29T01:42:24;100022.28;;;10.56;100.00
34925;BME280;21130;51.728;8.748;2023-04-29T01:44:54;100020.47;;;10.45;100.00
34925;BME280;21130;51.728;8.748;2023-04-29T01:47:22;100027.88;;;10.40;100.00
34925;BME280;21130;51.728;8.748;2023-04-29T01:49:50;100033.34;;;10.34;100.00
34925;BME280;21130;51.728;8.748;2023-04-29T01:52:16;100037.72;;;10.30;100.00
34925;BME280;21130;51.728;8.748;2023-04-29T01:54:43;100034.53;;;10.22;100.00
34925;BME280;21130;51.728;8.748;2023-04-29T01:57:11;100036.09;;;10.17;100.00
34925;BME280;21130;51.728;8.748;2023-04-29T01:59:38;100038.88;;;10.17;100.00
34925;BME280;21130;51.728;8.748;2023-04-29T02:02:04;100039.97;;;10.16;100.00
34925;BME280;21130;51.728;8.748;2023-04-29T02:04:30;100043.84;;;10.15;100.00
34925;BME280;21130;51.728;8.748;2023-04-29T02:06:58;100046.53;;;10.10;100.00
34925;BME280;21130;51.728;8.748;2023-04-29T02:09:25;100047.41;;;10.11;100.00
34925;BME280;21130;51.728;8.748;2023-04-29T02:11:52;100045.38;;;10.06;100.00
34925;BME280;21130;51.728;8.748;2023-04-29T02:14:19;100053.03;;;9.99;100.00
34925;BME280;21130;51.728;8.748;2023-04-29T02:16:46;100051.91;;;10.00;100.00
34925;BME280;21130;51.728;8.748;2023-04-29T02:19:12;100063.00;;;10.00;100.00
34925;BME280;21130;51.728;8.748;2023-04-29T02:21:39;100054.59;;;9.95;100.00
34925;BME280;21130;51.728;8.748;2023-04-29T02:24:06;100062.25;;;9.88;100.00
34925;BME280;21130;51.728;8.748;2023-04-29T02:26:32;100067.78;;;9.88;100.00
34925;BME280;21130;51.728;8.748;2023-04-29T02:28:59;100059.28;;;9.78;100.00
34925;BME280;21130;51.728;8.748;2023-04-29T02:31:27;100066.44;;;9.73;100.00
34925;BME280;21130;51.728;8.748;2023-04-29T02:33:54;100066.84;;;9.65;100.00
34925;BME280;21130;51.728;8.748;2023-04-29T02:36:20;100069.59;;;9.65;100.00
34925;BME280;21130;51.728;8.748;2023-04-29T02:38:46;100068.44;;;9.61;100.00
34925;BME280;21130;51.728;8.748;2023-04-29T02:41:15;100070.63;;;9.59;100.00
34925;BME280;21130;51.728;8.748;2023-04-29T02:43:42;100074.50;;;9.58;100.00
34925;BME280;21130;51.728;8.748;2023-04-29T02:46:09;100078.00;;;9.54;100.00
34925;BME280;21130;51.728;8.748;2023-04-29T02:48:36;100076.66;;;9.56;100.00
34925;BME280;21130;51.728;8.748;2023-04-29T02:51:03;100089.91;;;9.54;100.00
34925;BME280;21130;51.728;8.748;2023-04-29T02:53:30;100085.34;;;9.48;100.00
34925;BME280;21130;51.728;8.748;2023-04-29T02:55:56;100084.28;;;9.49;100.00
34925;BME280;21130;51.728;8.748;2023-04-29T02:58:23;100087.28;;;9.47;100.00
34925;BME280;21130;51.728;8.748;2023-04-29T03:00:49;100089.38;;;9.40;100.00
34925;BME280;21130;51.728;8.748;2023-04-29T03:03:16;100092.03;;;9.35;100.00
34925;BME280;21130;51.728;8.748;2023-04-29T03:05:43;100090.97;;;9.36;100.00
34925;BME280;21130;51.728;8.748;2023-04-29T03:08:10;100094.25;;;9.33;100.00
34925;BME280;21130;51.728;8.748;2023-04-29T03:10:37;100091.19;;;9.35;100.00
34925;BME280;21130;51.728;8.748;2023-04-29T03:13:03;100098.44;;;9.36;100.00
34925;BME280;21130;51.728;8.748;2023-04-29T03:15:49;100095.66;;;9.36;100.00
34925;BME280;21130;51.728;8.748;2023-04-29T03:18:34;100096.75;;;9.35;100.00
34925;BME280;21130;51.728;8.748;2023-04-29T03:21:20;100099.19;;;9.31;100.00
34925;BME280;21130;51.728;8.748;2023-04-29T03:24:05;100100.09;;;9.37;100.00
34925;BME280;21130;51.728;8.748;2023-04-29T03:26:32;100103.28;;;9.28;100.00
34925;BME280;21130;51.728;8.748;2023-04-29T03:28:58;100099.19;;;9.31;100.00
34925;BME280;21130;51.728;8.748;2023-04-29T03:31:24;100111.09;;;9.32;100.00
34925;BME280;21130;51.728;8.748;2023-04-29T03:33:51;100105.44;;;9.26;100.00
34925;BME280;21130;51.728;8.748;2023-04-29T03:36:17;100107.63;;;9.24;100.00
34925;BME280;21130;51.728;8.748;2023-04-29T03:38:45;100094.78;;;9.18;100.00
34925;BME280;21130;51.728;8.748;2023-04-29T03:41:12;100104.03;;;9.12;100.00
34925;BME280;21130;51.728;8.748;2023-04-29T03:43:38;100108.63;;;9.06;100.00
34925;BME280;21130;51.728;8.748;2023-04-29T03:46:04;100111.91;;;9.03;100.00
34925;BME280;21130;51.728;8.748;2023-04-29T03:48:31;100115.41;;;8.99;100.00
34925;BME280;21130;51.728;8.748;2023-04-29T03:50:58;100122.25;;;8.96;100.00
34925;BME280;21130;51.728;8.748;2023-04-29T03:53:25;100123.69;;;8.99;100.00
34925;BME280;21130;51.728;8.748;2023-04-29T03:55:53;100126.69;;;8.97;100.00
34925;BME280;21130;51.728;8.748;2023-04-29T03:58:19;100121.88;;;8.93;100.00
34925;BME280;21130;51.728;8.748;2023-04-29T04:00:45;100124.53;;;8.87;100.00
34925;BME280;21130;51.728;8.748;2023-04-29T04:03:12;100132.50;;;8.84;100.00
34925;BME280;21130;51.728;8.748;2023-04-29T04:05:38;100135.28;;;8.84;100.00
34925;BME280;21130;51.728;8.748;2023-04-29T04:08:05;100141.66;;;8.84;100.00
34925;BME280;21130;51.728;8.748;2023-04-29T04:10:31;100144.41;;;8.84;100.00
34925;BME280;21130;51.728;8.748;2023-04-29T04:13:19;100143.47;;;8.79;100.00
34925;BME280;21130;51.728;8.748;2023-04-29T04:16:03;100142.75;;;8.83;100.00
34925;BME280;21130;51.728;8.748;2023-04-29T04:18:48;100150.22;;;8.83;100.00
34925;BME280;21130;51.728;8.748;2023-04-29T04:21:14;100151.03;;;8.83;100.00
34925;BME280;21130;51.728;8.748;2023-04-29T04:23:41;100164.75;;;8.78;100.00
34925;BME280;21130;51.728;8.748;2023-04-29T04:26:08;100169.56;;;8.83;100.00
34925;BME280;21130;51.728;8.748;2023-04-29T04:28:36;100165.94;;;8.82;100.00
34925;BME280;21130;51.728;8.748;2023-04-29T04:31:03;100164.88;;;8.83;100.00
34925;BME280;21130;51.728;8.748;2023-04-29T04:33:29;100169.81;;;8.81;100.00
34925;BME280;21130;51.728;8.748;2023-04-29T04:35:56;100174.50;;;8.81;100.00
34925;BME280;21130;51.728;8.748;2023-04-29T04:38:22;100178.00;;;8.76;100.00
34925;BME280;21130;51.728;8.748;2023-04-29T04:40:50;100176.06;;;8.77;100.00
34925;BME280;21130;51.728;8.748;2023-04-29T04:43:16;100187.25;;;8.70;100.00
34925;BME280;21130;51.728;8.748;2023-04-29T04:45:45;100178.38;;;8.68;100.00
34925;BME280;21130;51.728;8.748;2023-04-29T04:48:11;100189.66;;;8.67;100.00
34925;BME280;21130;51.728;8.748;2023-04-29T04:50:37;100188.81;;;8.66;100.00
34925;BME280;21130;51.728;8.748;2023-04-29T04:53:04;100202.50;;;8.73;100.00
34925;BME280;21130;51.728;8.748;2023-04-29T04:55:31;100200.72;;;8.67;100.00
34925;BME280;21130;51.728;8.748;2023-04-29T04:57:58;100201.56;;;8.67;100.00
34925;BME280;21130;51.728;8.748;2023-04-29T05:00:25;100200.81;;;8.60;100.00
34925;BME280;21130;51.728;8.748;2023-04-29T05:02:52;100204.69;;;8.59;100.00
34925;BME280;21130;51.728;8.748;2023-04-29T05:05:19;100217.81;;;8.63;100.00
34925;BME280;21130;51.728;8.748;2023-04-29T05:07:45;100219.97;;;8.61;100.00
34925;BME280;21130;51.728;8.748;2023-04-29T05:10:12;100226.09;;;8.63;100.00
34925;BME280;21130;51.728;8.748;2023-04-29T05:12:38;100221.41;;;8.64;100.00
34925;BME280;21130;51.728;8.748;2023-04-29T05:15:05;100228.38;;;8.67;100.00
34925;BME280;21130;51.728;8.748;2023-04-29T05:17:32;100227.16;;;8.62;100.00
34925;BME280;21130;51.728;8.748;2023-04-29T05:20:02;100234.28;;;8.70;100.00
34925;BME280;21130;51.728;8.748;2023-04-29T05:22:28;100238.13;;;8.69;100.00
34925;BME280;21130;51.728;8.748;2023-04-29T05:24:55;100232.59;;;8.69;100.00
34925;BME280;21130;51.728;8.748;2023-04-29T05:27:27;100234.16;;;8.65;100.00
34925;BME280;21130;51.728;8.748;2023-04-29T05:29:53;100237.53;;;8.67;100.00
34925;BME280;21130;51.728;8.748;2023-04-29T05:32:19;100244.16;;;8.66;100.00
34925;BME280;21130;51.728;8.748;2023-04-29T05:34:46;100247.97;;;8.65;100.00
34925;BME280;21130;51.728;8.748;2023-04-29T05:37:13;100245.81;;;8.67;100.00
34925;BME280;21130;51.728;8.748;2023-04-29T05:39:40;100245.81;;;8.67;100.00
34925;BME280;21130;51.728;8.748;2023-04-29T05:42:06;100249.69;;;8.66;100.00
34925;BME280;21130;51.728;8.748;2023-04-29T05:44:33;100255.22;;;8.66;100.00
34925;BME280;21130;51.728;8.748;2023-04-29T05:46:59;100261.09;;;8.70;100.00
34925;BME280;21130;51.728;8.748;2023-04-29T05:49:25;100261.59;;;8.67;100.00
34925;BME280;21130;51.728;8.748;2023-04-29T05:51:52;100264.56;;;8.65;100.00
34925;BME280;21130;51.728;8.748;2023-04-29T05:54:19;100260.50;;;8.68;100.00
34925;BME280;21130;51.728;8.748;2023-04-29T05:56:46;100270.50;;;8.69;100.00
34925;BME280;21130;51.728;8.748;2023-04-29T05:59:12;100274.59;;;8.66;100.00
34925;BME280;21130;51.728;8.748;2023-04-29T06:01:39;100274.59;;;8.66;100.00
34925;BME280;21130;51.728;8.748;2023-04-29T06:04:05;100276.88;;;8.69;100.00
34925;BME280;21130;51.728;8.748;2023-04-29T06:06:32;100287.00;;;8.75;100.00
34925;BME280;21130;51.728;8.748;2023-04-29T06:08:59;100286.38;;;8.73;100.00
34925;BME280;21130;51.728;8.748;2023-04-29T06:11:27;100288.66;;;8.76;100.00
34925;BME280;21130;51.728;8.748;2023-04-29T06:13:53;100292.41;;;8.82;100.00
34925;BME280;21130;51.728;8.748;2023-04-29T06:16:39;100296.63;;;8.84;100.00
34925;BME280;21130;51.728;8.748;2023-04-29T06:19:23;100299.16;;;8.86;100.00
34925;BME280;21130;51.728;8.748;2023-04-29T06:21:50;100306.97;;;8.89;100.00
34925;BME280;21130;51.728;8.748;2023-04-29T06:24:16;100311.19;;;8.92;100.00
34925;BME280;21130;51.728;8.748;2023-04-29T06:26:44;100318.53;;;8.98;100.00
34925;BME280;21130;51.728;8.748;2023-04-29T06:29:10;100316.25;;;8.95;100.00
34925;BME280;21130;51.728;8.748;2023-04-29T06:31:37;100323.22;;;8.97;100.00
34925;BME280;21130;51.728;8.748;2023-04-29T06:34:03;100323.34;;;9.02;100.00
34925;BME280;21130;51.728;8.748;2023-04-29T06:36:30;100329.75;;;9.03;100.00
34925;BME280;21130;51.728;8.748;2023-04-29T06:38:56;100340.94;;;9.08;100.00
34925;BME280;21130;51.728;8.748;2023-04-29T06:41:22;100342.13;;;9.12;100.00
34925;BME280;21130;51.728;8.748;2023-04-29T06:43:50;100341.06;;;9.13;100.00
34925;BME280;21130;51.728;8.748;2023-04-29T06:46:17;100348.16;;;9.09;100.00
34925;BME280;21130;51.728;8.748;2023-04-29T06:48:43;100348.63;;;9.06;100.00
34925;BME280;21130;51.728;8.748;2023-04-29T06:51:10;100354.66;;;9.03;100.00
34925;BME280;21130;51.728;8.748;2023-04-29T06:53:36;100361.75;;;8.99;100.00
34925;BME280;21130;51.728;8.748;2023-04-29T06:56:03;100363.91;;;8.97;100.00
34925;BME280;21130;51.728;8.748;2023-04-29T06:58:30;100370.03;;;8.99;100.00
34925;BME280;21130;51.728;8.748;2023-04-29T07:00:57;100380.16;;;9.05;100.00
34925;BME280;21130;51.728;8.748;2023-04-29T07:03:26;100380.28;;;9.10;100.00
34925;BME280;21130;51.728;8.748;2023-04-29T07:05:52;100373.56;;;9.18;100.00
34925;BME280;21130;51.728;8.748;2023-04-29T07:08:18;100376.81;;;9.26;100.00
34925;BME280;21130;51.728;8.748;2023-04-29T07:10:52;100378.41;;;9.34;100.00
34925;BME280;21130;51.728;8.748;2023-04-29T07:13:19;100389.38;;;9.41;100.00
34925;BME280;21130;51.728;8.748;2023-04-29T07:15:46;100381.78;;;9.36;100.00
34925;BME280;21130;51.728;8.748;2023-04-29T07:18:13;100396.22;;;9.26;100.00
34925;BME280;21130;51.728;8.748;2023-04-29T07:20:40;100393.69;;;9.37;100.00
34925;BME280;21130;51.728;8.748;2023-04-29T07:23:07;100402.97;;;9.42;100.00
34925;BME280;21130;51.728;8.748;2023-04-29T07:25:34;100404.53;;;9.50;100.00
34925;BME280;21130;51.728;8.748;2023-04-29T07:28:01;100399.38;;;9.54;100.00
34925;BME280;21130;51.728;8.748;2023-04-29T07:30:27;100409.97;;;9.57;100.00
34925;BME280;21130;51.728;8.748;2023-04-29T07:32:54;100413.81;;;9.56;100.00
34925;BME280;21130;51.728;8.748;2023-04-29T07:35:22;100422.25;;;9.61;100.00
34925;BME280;21130;51.728;8.748;2023-04-29T07:37:48;100419.00;;;9.64;100.00
34925;BME280;21130;51.728;8.748;2023-04-29T07:40:14;100429.00;;;9.65;100.00
34925;BME280;21130;51.728;8.748;2023-04-29T07:42:42;100427.78;;;9.72;100.00
34925;BME280;21130;51.728;8.748;2023-04-29T07:45:09;100433.81;;;9.69;100.00
34925;BME280;21130;51.728;8.748;2023-04-29T07:47:35;100438.75;;;9.67;100.00
34925;BME280;21130;51.728;8.748;2023-04-29T07:50:02;100439.13;;;9.59;100.00
34925;BME280;21130;51.728;8.748;2023-04-29T07:52:30;100442.00;;;9.64;100.00
34925;BME280;21130;51.728;8.748;2023-04-29T07:54:57;100440.78;;;9.60;100.00
34925;BME280;21130;51.728;8.748;2023-04-29T07:57:23;100458.53;;;9.71;100.00
34925;BME280;21130;51.728;8.748;2023-04-29T07:59:50;100447.78;;;9.74;100.00
34925;BME280;21130;51.728;8.748;2023-04-29T08:02:17;100450.19;;;9.83;100.00
34925;BME280;21130;51.728;8.748;2023-04-29T08:04:44;100449.09;;;9.95;100.00
34925;BME280;21130;51.728;8.748;2023-04-29T08:07:10;100452.75;;;9.96;100.00
34925;BME280;21130;51.728;8.748;2023-04-29T08:09:38;100450.69;;;9.91;100.00
34925;BME280;21130;51.728;8.748;2023-04-29T08:12:04;100453.19;;;9.93;100.00
34925;BME280;21130;51.728;8.748;2023-04-29T08:14:31;100456.09;;;9.98;100.00
34925;BME280;21130;51.728;8.748;2023-04-29T08:16:57;100465.28;;;9.99;100.00
34925;BME280;21130;51.728;8.748;2023-04-29T08:19:24;100472.50;;;10.11;100.00
34925;BME280;21130;51.728;8.748;2023-04-29T08:21:50;100466.44;;;10.14;100.00
34925;BME280;21130;51.728;8.748;2023-04-29T08:24:16;100468.84;;;10.23;100.00
34925;BME280;21130;51.728;8.748;2023-04-29T08:26:46;100479.34;;;10.21;100.00
34925;BME280;21130;51.728;8.748;2023-04-29T08:29:12;100479.06;;;10.46;100.00
34925;BME280;21130;51.728;8.748;2023-04-29T08:31:38;100478.81;;;10.59;100.00
34925;BME280;21130;51.728;8.748;2023-04-29T08:34:05;100483.25;;;10.72;100.00
34925;BME280;21130;51.728;8.748;2023-04-29T08:36:31;100489.59;;;10.84;100.00
34925;BME280;21130;51.728;8.748;2023-04-29T08:38:58;100487.75;;;10.90;100.00
34925;BME280;21130;51.728;8.748;2023-04-29T08:41:24;100492.28;;;10.79;100.00
34925;BME280;21130;51.728;8.748;2023-04-29T08:43:52;100497.84;;;10.79;100.00
34925;BME280;21130;51.728;8.748;2023-04-29T08:46:18;100499.06;;;10.71;100.00
34925;BME280;21130;51.728;8.748;2023-04-29T08:48:46;100496.03;;;10.73;100.00
34925;BME280;21130;51.728;8.748;2023-04-29T08:51:13;100496.28;;;10.71;100.00
34925;BME280;21130;51.728;8.748;2023-04-29T08:53:39;100498.53;;;10.86;100.00
34925;BME280;21130;51.728;8.748;2023-04-29T08:56:12;100507.53;;;11.22;100.00
34925;BME280;21130;51.728;8.748;2023-04-29T08:58:41;100506.06;;;11.02;100.00
34925;BME280;21130;51.728;8.748;2023-04-29T09:01:09;100505.47;;;11.29;100.00
34925;BME280;21130;51.728;8.748;2023-04-29T09:03:42;100503.47;;;11.41;100.00
34925;BME280;21130;51.728;8.748;2023-04-29T09:06:10;100502.22;;;11.20;100.00
34925;BME280;21130;51.728;8.748;2023-04-29T09:08:36;100507.13;;;11.30;100.00
34925;BME280;21130;51.728;8.748;2023-04-29T09:11:07;100509.78;;;11.37;100.00
34925;BME280;21130;51.728;8.748;2023-04-29T09:13:34;100510.69;;;11.42;100.00
34925;BME280;21130;51.728;8.748;2023-04-29T09:16:00;100506.84;;;11.77;100.00
34925;BME280;21130;51.728;8.748;2023-04-29T09:18:48;100513.75;;;11.75;100.00
34925;BME280;21130;51.728;8.748;2023-04-29T09:21:17;100509.78;;;11.71;100.00
34925;BME280;21130;51.728;8.748;2023-04-29T09:23:44;100508.09;;;11.53;100.00
34925;BME280;21130;51.728;8.748;2023-04-29T09:26:11;100508.53;;;11.78;100.00
34925;BME280;21130;51.728;8.748;2023-04-29T09:28:37;100516.66;;;11.97;100.00
34925;BME280;21130;51.728;8.748;2023-04-29T09:31:08;100519.84;;;12.05;100.00
34925;BME280;21130;51.728;8.748;2023-04-29T09:33:53;100520.66;;;12.06;100.00
34925;BME280;21130;51.728;8.748;2023-04-29T09:36:37;100523.28;;;12.29;100.00
34925;BME280;21130;51.728;8.748;2023-04-29T09:39:05;100520.44;;;12.07;100.00
34925;BME280;21130;51.728;8.748;2023-04-29T09:41:38;100527.50;;;12.15;100.00
34925;BME280;21130;51.728;8.748;2023-04-29T09:44:05;100536.16;;;12.19;100.00
34925;BME280;21130;51.728;8.748;2023-04-29T09:46:32;100534.41;;;11.96;100.00
34925;BME280;21130;51.728;8.748;2023-04-29T09:49:00;100544.88;;;11.88;100.00
34925;BME280;21130;51.728;8.748;2023-04-29T09:51:26;100549.69;;;12.10;100.00
34925;BME280;21130;51.728;8.748;2023-04-29T09:53:56;100539.16;;;12.12;100.00
34925;BME280;21130;51.728;8.748;2023-04-29T09:56:23;100544.91;;;12.44;100.00
34925;BME280;21130;51.728;8.748;2023-04-29T09:58:53;100542.28;;;12.54;100.00
34925;BME280;21130;51.728;8.748;2023-04-29T10:01:21;100549.13;;;12.69;100.00
34925;BME280;21130;51.728;8.748;2023-04-29T10:03:49;100546.78;;;12.61;100.00
34925;BME280;21130;51.728;8.748;2023-04-29T10:06:19;100556.72;;;12.73;100.00
34925;BME280;21130;51.728;8.748;2023-04-29T10:08:46;100560.03;;;12.70;100.00
34925;BME280;21130;51.728;8.748;2023-04-29T10:11:13;100557.03;;;12.55;100.00
34925;BME280;21130;51.728;8.748;2023-04-29T10:13:42;100565.00;;;12.68;100.00
34925;BME280;21130;51.728;8.748;2023-04-29T10:16:14;100566.38;;;12.88;100.00
34925;BME280;21130;51.728;8.748;2023-04-29T10:18:48;100556.78;;;12.79;100.00
34925;BME280;21130;51.728;8.748;2023-04-29T10:21:20;100565.38;;;12.55;100.00
34925;BME280;21130;51.728;8.748;2023-04-29T10:23:47;100570.28;;;12.87;100.00
34925;BME280;21130;51.728;8.748;2023-04-29T10:26:16;100562.59;;;12.55;100.00
34925;BME280;21130;51.728;8.748;2023-04-29T10:28:44;100566.63;;;12.64;100.00
34925;BME280;21130;51.728;8.748;2023-04-29T10:31:13;100558.28;;;12.64;100.00
34925;BME280;21130;51.728;8.748;2023-04-29T10:33:42;100563.22;;;12.79;100.00
34925;BME280;21130;51.728;8.748;2023-04-29T10:36:10;100559.91;;;13.04;100.00
34925;BME280;21130;51.728;8.748;2023-04-29T10:38:41;100563.13;;;13.40;100.00
34925;BME280;21130;51.728;8.748;2023-04-29T10:41:18;100561.44;;;13.39;100.00
34925;BME280;21130;51.728;8.748;2023-04-29T10:43:47;100572.44;;;13.78;100.00
34925;BME280;21130;51.728;8.748;2023-04-29T10:46:18;100573.38;;;13.61;100.00
34925;BME280;21130;51.728;8.748;2023-04-29T10:48:45;100575.16;;;13.46;100.00
34925;BME280;21130;51.728;8.748;2023-04-29T10:51:11;100572.63;;;13.44;100.00
34925;BME280;21130;51.728;8.748;2023-04-29T10:54:01;100567.53;;;13.63;100.00
34925;BME280;21130;51.728;8.748;2023-04-29T10:56:35;100569.66;;;13.51;100.00
34925;BME280;21130;51.728;8.748;2023-04-29T10:59:02;100568.44;;;13.19;100.00
34925;BME280;21130;51.728;8.748;2023-04-29T11:01:42;100571.50;;;13.40;100.00
34925;BME280;21130;51.728;8.748;2023-04-29T11:04:09;100572.47;;;13.29;100.00
34925;BME280;21130;51.728;8.748;2023-04-29T11:06:41;100578.22;;;13.22;100.00
34925;BME280;21130;51.728;8.748;2023-04-29T11:09:12;100575.53;;;13.27;100.00
34925;BME280;21130;51.728;8.748;2023-04-29T11:11:43;100577.72;;;13.03;100.00
34925;BME280;21130;51.728;8.748;2023-04-29T11:14:13;100578.41;;;12.93;100.00
34925;BME280;21130;51.728;8.748;2023-04-29T11:16:47;100568.13;;;13.16;100.00
34925;BME280;21130;51.728;8.748;2023-04-29T11:19:15;100569.44;;;13.30;100.00
34925;BME280;21130;51.728;8.748;2023-04-29T11:21:44;100585.53;;;13.50;100.00
34925;BME280;21130;51.728;8.748;2023-04-29T11:24:12;100583.09;;;13.59;100.00
34925;BME280;21130;51.728;8.748;2023-04-29T11:26:40;100585.84;;;13.54;100.00
34925;BME280;21130;51.728;8.748;2023-04-29T11:29:08;100588.50;;;13.66;100.00
34925;BME280;21130;51.728;8.748;2023-04-29T11:31:35;100588.59;;;13.76;100.00
34925;BME280;21130;51.728;8.748;2023-04-29T11:34:03;100589.84;;;13.63;100.00
34925;BME280;21130;51.728;8.748;2023-04-29T11:36:30;100591.84;;;13.68;100.00
34925;BME280;21130;51.728;8.748;2023-04-29T11:38:59;100592.69;;;13.68;100.00
34925;BME280;21130;51.728;8.748;2023-04-29T11:41:27;100600.13;;;13.57;100.00
34925;BME280;21130;51.728;8.748;2023-04-29T11:43:57;100603.09;;;13.51;100.00
34925;BME280;21130;51.728;8.748;2023-04-29T11:46:24;100596.69;;;13.06;100.00
34925;BME280;21130;51.728;8.748;2023-04-29T11:48:53;100602.47;;;13.00;100.00
34925;BME280;21130;51.728;8.748;2023-04-29T11:51:19;100605.38;;;12.88;100.00
34925;BME280;21130;51.728;8.748;2023-04-29T11:53:46;100608.03;;;12.78;100.00
34925;BME280;21130;51.728;8.748;2023-04-29T11:56:13;100615.56;;;12.60;100.00
34925;BME280;21130;51.728;8.748;2023-04-29T11:58:42;100616.59;;;12.54;100.00
34925;BME280;21130;51.728;8.748;2023-04-29T12:01:09;100611.34;;;12.74;100.00
34925;BME280;21130;51.728;8.748;2023-04-29T12:03:36;100612.00;;;12.82;100.00
34925;BME280;21130;51.728;8.748;2023-04-29T12:06:03;100617.91;;;13.07;100.00
34925;BME280;21130;51.728;8.748;2023-04-29T12:08:30;100621.78;;;13.06;100.00
34925;BME280;21130;51.728;8.748;2023-04-29T12:10:58;100625.03;;;13.20;100.00
34925;BME280;21130;51.728;8.748;2023-04-29T12:13:27;100623.22;;;13.31;100.00
34925;BME280;21130;51.728;8.748;2023-04-29T12:15:56;100625.78;;;13.15;100.00
34925;BME280;21130;51.728;8.748;2023-04-29T12:18:23;100623.41;;;13.02;100.00
34925;BME280;21130;51.728;8.748;2023-04-29T12:20:51;100627.63;;;13.05;100.00
34925;BME280;21130;51.728;8.748;2023-04-29T12:23:21;100621.25;;;12.87;100.00
34925;BME280;21130;51.728;8.748;2023-04-29T12:25:48;100622.03;;;12.83;100.00
34925;BME280;21130;51.728;8.748;2023-04-29T12:28:16;100622.81;;;13.00;100.00
34925;BME280;21130;51.728;8.748;2023-04-29T12:30:43;100619.78;;;13.02;100.00
34925;BME280;21130;51.728;8.748;2023-04-29T12:33:18;100619.63;;;13.13;100.00
34925;BME280;21130;51.728;8.748;2023-04-29T12:35:46;100620.63;;;13.24;100.00
34925;BME280;21130;51.728;8.748;2023-04-29T12:38:15;100620.22;;;13.59;100.00
34925;BME280;21130;51.728;8.748;2023-04-29T12:40:43;100624.25;;;13.47;100.00
34925;BME280;21130;51.728;8.748;2023-04-29T12:43:10;100623.53;;;13.56;100.00
34925;BME280;21130;51.728;8.748;2023-04-29T12:45:37;100621.06;;;13.60;100.00
34925;BME280;21130;51.728;8.748;2023-04-29T12:48:04;100618.53;;;13.86;100.00
34925;BME280;21130;51.728;8.748;2023-04-29T12:50:33;100623.50;;;14.11;100.00